sensor_id;sensor_type;location;lat;lon;timestamp;pressure;altitude;pressure_sealevel;temperature;humidity
15817;BME280;8009;50.070;8.232;2022-11-22T00:02:22;97932.69;;;7.71;78.69
15817;BME280;8009;50.070;8.232;2022-11-22T00:04:53;97938.56;;;7.57;79.19
15817;BME280;8009;50.070;8.232;2022-11-22T00:07:22;97925.78;;;7.69;79.03
15817;BME280;8009;50.070;8.232;2022-11-22T00:09:50;97931.91;;;7.51;79.40
15817;BME280;8009;50.070;8.232;2022-11-22T00:12:18;97923.16;;;7.87;78.42
15817;BME280;8009;50.070;8.232;2022-11-22T00:14:47;97912.53;;;7.85;78.11
15817;BME280;8009;50.070;8.232;2022-11-22T00:17:15;97913.53;;;7.84;78.79
15817;BME280;8009;50.070;8.232;2022-11-22T00:19:46;97911.53;;;7.58;79.82
15817;BME280;8009;50.070;8.232;2022-11-22T00:22:14;97907.81;;;7.69;79.40
15817;BME280;8009;50.070;8.232;2022-11-22T00:24:43;97898.84;;;7.51;80.05
15817;BME280;8009;50.070;8.232;2022-11-22T00:27:11;97894.13;;;7.63;79.93
15817;BME280;8009;50.070;8.232;2022-11-22T00:29:40;97890.78;;;7.51;80.07
15817;BME280;8009;50.070;8.232;2022-11-22T00:32:08;97885.75;;;7.48;80.32
15817;BME280;8009;50.070;8.232;2022-11-22T00:34:36;97884.94;;;7.38;80.81
15817;BME280;8009;50.070;8.232;2022-11-22T00:37:07;97879.81;;;7.44;80.74
15817;BME280;8009;50.070;8.232;2022-11-22T00:39:36;97878.16;;;7.33;81.25
15817;BME280;8009;50.070;8.232;2022-11-22T00:42:04;97883.00;;;7.57;80.17
15817;BME280;8009;50.070;8.232;2022-11-22T00:44:33;97881.31;;;7.56;80.41
15817;BME280;8009;50.070;8.232;2022-11-22T00:47:01;97887.06;;;7.62;80.22
15817;BME280;8009;50.070;8.232;2022-11-22T00:49:29;97880.69;;;7.63;79.99
15817;BME280;8009;50.070;8.232;2022-11-22T00:51:57;97891.41;;;7.35;82.20
15817;BME280;8009;50.070;8.232;2022-11-22T00:54:29;97893.53;;;7.69;80.45
15817;BME280;8009;50.070;8.232;2022-11-22T00:56:57;97901.16;;;7.73;80.38
15817;BME280;8009;50.070;8.232;2022-11-22T00:59:25;97899.16;;;7.75;80.31
15817;BME280;8009;50.070;8.232;2022-11-22T01:01:54;97893.72;;;7.57;81.31
15817;BME280;8009;50.070;8.232;2022-11-22T01:04:22;97910.81;;;7.29;82.78
15817;BME280;8009;50.070;8.232;2022-11-22T01:06:50;97905.19;;;7.60;80.79
15817;BME280;8009;50.070;8.232;2022-11-22T01:09:20;97906.88;;;7.61;81.22
15817;BME280;8009;50.070;8.232;2022-11-22T01:11:58;97902.16;;;7.72;80.94
15817;BME280;8009;50.070;8.232;2022-11-22T01:14:27;97906.03;;;7.60;81.98
15817;BME280;8009;50.070;8.232;2022-11-22T01:16:55;97897.16;;;7.50;82.93
15817;BME280;8009;50.070;8.232;2022-11-22T01:19:23;97897.78;;;7.71;81.56
15817;BME280;8009;50.070;8.232;2022-11-22T01:21:52;97898.63;;;7.72;81.31
15817;BME280;8009;50.070;8.232;2022-11-22T01:24:42;97908.06;;;7.76;81.09
15817;BME280;8009;50.070;8.232;2022-11-22T01:27:15;97900.06;;;7.94;80.52
15817;BME280;8009;50.070;8.232;2022-11-22T01:29:55;97892.97;;;7.93;80.65
15817;BME280;8009;50.070;8.232;2022-11-22T01:32:23;97908.81;;;7.68;81.98
15817;BME280;8009;50.070;8.232;2022-11-22T01:34:52;97919.09;;;7.73;81.83
15817;BME280;8009;50.070;8.232;2022-11-22T01:37:20;97917.63;;;7.51;82.98
15817;BME280;8009;50.070;8.232;2022-11-22T01:39:48;97924.78;;;7.70;82.44
15817;BME280;8009;50.070;8.232;2022-11-22T01:42:19;97928.84;;;7.46;83.40
15817;BME280;8009;50.070;8.232;2022-11-22T01:44:49;97934.69;;;7.69;82.16
15817;BME280;8009;50.070;8.232;2022-11-22T01:47:19;97933.97;;;7.30;84.04
15817;BME280;8009;50.070;8.232;2022-11-22T01:49:54;97943.47;;;7.15;85.19
15817;BME280;8009;50.070;8.232;2022-11-22T01:52:26;97942.38;;;7.54;83.21
15817;BME280;8009;50.070;8.232;2022-11-22T01:54:58;97936.91;;;7.74;82.66
15817;BME280;8009;50.070;8.232;2022-11-22T01:57:32;97925.41;;;7.81;82.09
15817;BME280;8009;50.070;8.232;2022-11-22T02:00:04;97929.47;;;7.68;82.90
15817;BME280;8009;50.070;8.232;2022-11-22T02:02:34;97936.25;;;7.62;83.43
15817;BME280;8009;50.070;8.232;2022-11-22T02:05:07;97934.28;;;7.64;83.42
15817;BME280;8009;50.070;8.232;2022-11-22T02:29:45;97943.28;;;7.73;82.53
15817;BME280;8009;50.070;8.232;2022-11-22T02:32:14;97942.44;;;7.72;82.85
15817;BME280;8009;50.070;8.232;2022-11-22T02:34:44;97944.03;;;7.08;85.26
15817;BME280;8009;50.070;8.232;2022-11-22T02:37:16;97944.00;;;7.38;84.66
15817;BME280;8009;50.070;8.232;2022-11-22T03:11:49;97969.47;;;7.98;80.98
15817;BME280;8009;50.070;8.232;2022-11-22T03:14:17;97971.63;;;7.95;81.38
15817;BME280;8009;50.070;8.232;2022-11-22T03:16:46;97967.91;;;7.96;81.29
15817;BME280;8009;50.070;8.232;2022-11-22T06:10:09;98090.38;;;8.08;81.14
15817;BME280;8009;50.070;8.232;2022-11-22T06:12:38;98093.50;;;8.03;81.11
15817;BME280;8009;50.070;8.232;2022-11-22T06:15:08;98095.34;;;8.03;80.84
15817;BME280;8009;50.070;8.232;2022-11-22T06:17:36;98103.41;;;8.03;80.92
15817;BME280;8009;50.070;8.232;2022-11-22T06:20:06;98106.66;;;8.06;80.69
15817;BME280;8009;50.070;8.232;2022-11-22T06:22:35;98116.00;;;8.02;79.94
15817;BME280;8009;50.070;8.232;2022-11-22T06:25:04;98112.09;;;7.87;81.58
15817;BME280;8009;50.070;8.232;2022-11-22T06:27:35;98125.78;;;7.94;80.83
15817;BME280;8009;50.070;8.232;2022-11-22T06:30:16;98132.25;;;8.01;80.17
15817;BME280;8009;50.070;8.232;2022-11-22T06:32:44;98138.69;;;7.90;80.72
15817;BME280;8009;50.070;8.232;2022-11-22T06:35:13;98137.41;;;7.85;80.40
15817;BME280;8009;50.070;8.232;2022-11-22T06:37:57;98149.25;;;7.92;80.23
15817;BME280;8009;50.070;8.232;2022-11-22T06:40:33;98141.53;;;7.79;80.87
15817;BME280;8009;50.070;8.232;2022-11-22T06:43:04;98139.50;;;7.91;79.92
15817;BME280;8009;50.070;8.232;2022-11-22T06:45:34;98148.75;;;7.78;80.23
15817;BME280;8009;50.070;8.232;2022-11-22T06:48:03;98149.41;;;7.80;79.84
15817;BME280;8009;50.070;8.232;2022-11-22T06:50:31;98154.94;;;7.79;79.54
15817;BME280;8009;50.070;8.232;2022-11-22T06:53:00;98158.34;;;7.71;80.69
15817;BME280;8009;50.070;8.232;2022-11-22T06:55:30;98162.13;;;7.88;79.31
15817;BME280;8009;50.070;8.232;2022-11-22T06:58:07;98165.66;;;7.89;79.43
15817;BME280;8009;50.070;8.232;2022-11-22T07:00:37;98173.16;;;7.95;79.27
15817;BME280;8009;50.070;8.232;2022-11-22T07:03:08;98180.06;;;7.97;79.05
15817;BME280;8009;50.070;8.232;2022-11-22T07:05:36;98180.38;;;7.85;79.28
15817;BME280;8009;50.070;8.232;2022-11-22T07:08:04;98175.97;;;7.93;79.09
15817;BME280;8009;50.070;8.232;2022-11-22T07:10:35;98173.59;;;7.90;78.86
15817;BME280;8009;50.070;8.232;2022-11-22T07:13:06;98182.22;;;7.84;79.02
15817;BME280;8009;50.070;8.232;2022-11-22T07:15:35;98181.50;;;7.92;79.00
15817;BME280;8009;50.070;8.232;2022-11-22T07:18:03;98186.34;;;7.78;79.83
15817;BME280;8009;50.070;8.232;2022-11-22T07:20:32;98192.56;;;7.79;79.29
15817;BME280;8009;50.070;8.232;2022-11-22T07:23:01;98192.41;;;7.80;79.41
15817;BME280;8009;50.070;8.232;2022-11-22T07:25:30;98189.72;;;7.90;79.22
15817;BME280;8009;50.070;8.232;2022-11-22T07:27:59;98193.81;;;7.94;78.89
15817;BME280;8009;50.070;8.232;2022-11-22T07:30:33;98192.09;;;8.03;78.59
15817;BME280;8009;50.070;8.232;2022-11-22T07:33:02;98194.91;;;8.11;78.57
15817;BME280;8009;50.070;8.232;2022-11-22T07:35:30;98201.03;;;7.94;79.58
15817;BME280;8009;50.070;8.232;2022-11-22T07:37:58;98205.84;;;7.90;79.58
15817;BME280;8009;50.070;8.232;2022-11-22T07:40:27;98208.38;;;8.01;78.81
15817;BME280;8009;50.070;8.232;2022-11-22T07:42:55;98207.66;;;7.99;79.27
15817;BME280;8009;50.070;8.232;2022-11-22T07:45:24;98197.63;;;8.01;79.32
15817;BME280;8009;50.070;8.232;2022-11-22T07:47:58;98208.66;;;7.98;78.96
15817;BME280;8009;50.070;8.232;2022-11-22T07:50:26;98216.59;;;7.80;80.09
15817;BME280;8009;50.070;8.232;2022-11-22T07:52:55;98217.72;;;7.68;78.03
15817;BME280;8009;50.070;8.232;2022-11-22T07:55:24;98216.03;;;7.87;77.89
15817;BME280;8009;50.070;8.232;2022-11-22T07:57:53;98210.88;;;8.13;77.47
15817;BME280;8009;50.070;8.232;2022-11-22T08:00:21;98226.06;;;7.94;78.12
15817;BME280;8009;50.070;8.232;2022-11-22T08:02:50;98229.88;;;7.82;77.43
15817;BME280;8009;50.070;8.232;2022-11-22T08:05:20;98236.81;;;8.14;77.63
15817;BME280;8009;50.070;8.232;2022-11-22T08:07:50;98238.78;;;8.12;78.00
15817;BME280;8009;50.070;8.232;2022-11-22T08:10:20;98240.03;;;8.27;76.85
15817;BME280;8009;50.070;8.232;2022-11-22T08:12:49;98248.84;;;7.90;77.20
15817;BME280;8009;50.070;8.232;2022-11-22T08:15:18;98249.97;;;8.07;76.45
15817;BME280;8009;50.070;8.232;2022-11-22T08:17:49;98258.16;;;8.25;76.34
15817;BME280;8009;50.070;8.232;2022-11-22T08:20:20;98255.34;;;8.17;76.10
15817;BME280;8009;50.070;8.232;2022-11-22T08:22:48;98252.09;;;8.13;76.28
15817;BME280;8009;50.070;8.232;2022-11-22T08:25:16;98251.09;;;8.14;77.21
15817;BME280;8009;50.070;8.232;2022-11-22T08:27:45;98244.44;;;8.18;76.75
15817;BME280;8009;50.070;8.232;2022-11-22T08:30:14;98243.56;;;8.27;75.93
15817;BME280;8009;50.070;8.232;2022-11-22T08:32:42;98246.81;;;8.31;75.61
15817;BME280;8009;50.070;8.232;2022-11-22T08:35:10;98252.06;;;8.33;74.59
15817;BME280;8009;50.070;8.232;2022-11-22T08:37:42;98250.66;;;8.28;74.67
15817;BME280;8009;50.070;8.232;2022-11-22T08:40:10;98249.25;;;8.15;74.20
15817;BME280;8009;50.070;8.232;2022-11-22T08:42:39;98243.16;;;8.32;73.82
15817;BME280;8009;50.070;8.232;2022-11-22T08:45:08;98240.06;;;8.07;75.49
15817;BME280;8009;50.070;8.232;2022-11-22T08:47:38;98243.47;;;8.00;75.36
15817;BME280;8009;50.070;8.232;2022-11-22T08:50:07;98251.66;;;8.18;74.86
15817;BME280;8009;50.070;8.232;2022-11-22T08:52:36;98257.31;;;7.95;74.34
15817;BME280;8009;50.070;8.232;2022-11-22T08:55:08;98260.56;;;8.09;75.26
15817;BME280;8009;50.070;8.232;2022-11-22T08:57:36;98257.63;;;7.82;74.86
15817;BME280;8009;50.070;8.232;2022-11-22T09:00:06;98264.81;;;8.11;75.06
15817;BME280;8009;50.070;8.232;2022-11-22T09:02:35;98272.59;;;8.04;73.55
15817;BME280;8009;50.070;8.232;2022-11-22T09:05:04;98272.03;;;8.11;74.03
15817;BME280;8009;50.070;8.232;2022-11-22T09:07:33;98283.19;;;8.45;73.47
15817;BME280;8009;50.070;8.232;2022-11-22T09:10:02;98290.56;;;8.33;73.25
15817;BME280;8009;50.070;8.232;2022-11-22T09:12:35;98285.19;;;8.14;74.15
15817;BME280;8009;50.070;8.232;2022-11-22T09:15:04;98281.19;;;8.27;75.38
15817;BME280;8009;50.070;8.232;2022-11-22T09:17:32;98279.06;;;8.31;73.30
15817;BME280;8009;50.070;8.232;2022-11-22T09:20:00;98270.59;;;8.55;73.74
15817;BME280;8009;50.070;8.232;2022-11-22T09:22:30;98281.91;;;8.59;74.17
15817;BME280;8009;50.070;8.232;2022-11-22T09:24:58;98288.13;;;8.30;72.81
15817;BME280;8009;50.070;8.232;2022-11-22T09:27:27;98285.28;;;8.31;73.20
15817;BME280;8009;50.070;8.232;2022-11-22T09:29:58;98292.25;;;8.24;74.00
15817;BME280;8009;50.070;8.232;2022-11-22T09:32:26;98287.59;;;8.36;73.06
15817;BME280;8009;50.070;8.232;2022-11-22T09:34:55;98274.16;;;8.17;70.92
15817;BME280;8009;50.070;8.232;2022-11-22T09:37:24;98281.22;;;8.37;70.59
15817;BME280;8009;50.070;8.232;2022-11-22T09:39:54;98270.88;;;8.33;70.01
15817;BME280;8009;50.070;8.232;2022-11-22T09:42:36;98262.06;;;8.60;70.26
15817;BME280;8009;50.070;8.232;2022-11-22T09:45:44;98255.34;;;8.73;71.12
15817;BME280;8009;50.070;8.232;2022-11-22T09:48:33;98261.91;;;8.71;70.44
15817;BME280;8009;50.070;8.232;2022-11-22T09:51:08;98253.03;;;8.51;70.18
15817;BME280;8009;50.070;8.232;2022-11-22T09:53:43;98242.78;;;8.64;69.28
15817;BME280;8009;50.070;8.232;2022-11-22T09:56:15;98249.78;;;8.47;70.80
15817;BME280;8009;50.070;8.232;2022-11-22T09:58:47;98252.31;;;8.49;70.22
15817;BME280;8009;50.070;8.232;2022-11-22T10:01:25;98253.63;;;8.45;71.11
15817;BME280;8009;50.070;8.232;2022-11-22T10:03:59;98247.72;;;8.69;69.04
15817;BME280;8009;50.070;8.232;2022-11-22T10:06:32;98244.25;;;8.59;68.84
15817;BME280;8009;50.070;8.232;2022-11-22T10:09:18;98241.22;;;8.71;69.67
15817;BME280;8009;50.070;8.232;2022-11-22T10:11:53;98238.13;;;8.66;69.38
15817;BME280;8009;50.070;8.232;2022-11-22T10:14:35;98238.34;;;8.83;68.24
15817;BME280;8009;50.070;8.232;2022-11-22T10:17:20;98235.22;;;8.77;68.87
15817;BME280;8009;50.070;8.232;2022-11-22T10:19:56;98247.00;;;8.76;69.46
15817;BME280;8009;50.070;8.232;2022-11-22T10:22:27;98245.13;;;8.87;70.26
15817;BME280;8009;50.070;8.232;2022-11-22T10:24:58;98243.75;;;8.73;68.82
15817;BME280;8009;50.070;8.232;2022-11-22T10:27:30;98236.66;;;8.15;70.00
15817;BME280;8009;50.070;8.232;2022-11-22T10:30:02;98239.88;;;8.48;69.14
15817;BME280;8009;50.070;8.232;2022-11-22T10:32:37;98234.34;;;8.87;69.68
15817;BME280;8009;50.070;8.232;2022-11-22T10:35:21;98230.59;;;8.70;70.34
15817;BME280;8009;50.070;8.232;2022-11-22T10:37:59;98239.94;;;8.75;69.33
15817;BME280;8009;50.070;8.232;2022-11-22T10:40:37;98214.56;;;8.78;69.30
15817;BME280;8009;50.070;8.232;2022-11-22T10:43:22;98216.56;;;8.76;68.44
15817;BME280;8009;50.070;8.232;2022-11-22T10:45:55;98213.22;;;8.92;67.40
15817;BME280;8009;50.070;8.232;2022-11-22T10:48:36;98213.81;;;9.13;66.32
15817;BME280;8009;50.070;8.232;2022-11-22T10:51:14;98200.06;;;8.89;67.11
15817;BME280;8009;50.070;8.232;2022-11-22T10:53:53;98204.13;;;8.93;66.99
15817;BME280;8009;50.070;8.232;2022-11-22T10:56:29;98208.94;;;8.99;68.49
15817;BME280;8009;50.070;8.232;2022-11-22T10:59:19;98207.00;;;8.91;68.98
15817;BME280;8009;50.070;8.232;2022-11-22T11:01:57;98209.91;;;9.25;67.56
15817;BME280;8009;50.070;8.232;2022-11-22T11:04:32;98214.03;;;9.02;68.62
15817;BME280;8009;50.070;8.232;2022-11-22T11:07:03;98211.13;;;9.13;68.31
15817;BME280;8009;50.070;8.232;2022-11-22T11:09:38;98209.38;;;9.22;66.73
15817;BME280;8009;50.070;8.232;2022-11-22T11:12:13;98214.72;;;9.04;67.41
15817;BME280;8009;50.070;8.232;2022-11-22T11:14:45;98220.47;;;9.37;67.47
15817;BME280;8009;50.070;8.232;2022-11-22T11:17:17;98209.91;;;9.25;66.86
15817;BME280;8009;50.070;8.232;2022-11-22T11:19:49;98213.50;;;8.89;67.38
15817;BME280;8009;50.070;8.232;2022-11-22T11:22:20;98223.84;;;9.21;66.98
15817;BME280;8009;50.070;8.232;2022-11-22T11:24:50;98224.53;;;9.23;67.10
15817;BME280;8009;50.070;8.232;2022-11-22T11:27:36;98222.59;;;9.15;66.39
15817;BME280;8009;50.070;8.232;2022-11-22T11:30:11;98216.25;;;9.07;66.56
15817;BME280;8009;50.070;8.232;2022-11-22T11:32:51;98214.75;;;9.22;66.85
15817;BME280;8009;50.070;8.232;2022-11-22T11:35:26;98217.31;;;8.96;65.75
15817;BME280;8009;50.070;8.232;2022-11-22T11:37:55;98217.31;;;8.96;65.27
15817;BME280;8009;50.070;8.232;2022-11-22T11:40:28;98209.84;;;8.90;67.27
15817;BME280;8009;50.070;8.232;2022-11-22T11:43:14;98213.72;;;9.05;66.05
15817;BME280;8009;50.070;8.232;2022-11-22T11:45:43;98214.72;;;9.32;65.05
15817;BME280;8009;50.070;8.232;2022-11-22T11:48:26;98209.16;;;9.33;67.35
15817;BME280;8009;50.070;8.232;2022-11-22T11:51:14;98207.84;;;9.37;64.74
15817;BME280;8009;50.070;8.232;2022-11-22T11:53:52;98213.53;;;9.34;64.35
15817;BME280;8009;50.070;8.232;2022-11-22T11:56:32;98212.78;;;9.24;66.70
15817;BME280;8009;50.070;8.232;2022-11-22T11:59:09;98214.38;;;9.35;65.27
15817;BME280;8009;50.070;8.232;2022-11-22T12:01:47;98210.81;;;9.44;65.51
15817;BME280;8009;50.070;8.232;2022-11-22T12:04:20;98208.56;;;9.39;66.01
15817;BME280;8009;50.070;8.232;2022-11-22T12:07:00;98205.94;;;9.47;65.58
15817;BME280;8009;50.070;8.232;2022-11-22T12:09:33;98209.72;;;9.37;65.76
15817;BME280;8009;50.070;8.232;2022-11-22T12:12:08;98217.66;;;9.56;65.68
15817;BME280;8009;50.070;8.232;2022-11-22T12:14:40;98215.97;;;9.55;65.58
15817;BME280;8009;50.070;8.232;2022-11-22T12:17:18;98217.19;;;9.15;66.35
15817;BME280;8009;50.070;8.232;2022-11-22T12:19:55;98208.78;;;9.28;65.98
15817;BME280;8009;50.070;8.232;2022-11-22T12:22:35;98204.91;;;9.31;67.04
15817;BME280;8009;50.070;8.232;2022-11-22T12:25:16;98201.25;;;9.32;67.04
15817;BME280;8009;50.070;8.232;2022-11-22T12:27:49;98206.31;;;9.35;66.69
15817;BME280;8009;50.070;8.232;2022-11-22T12:30:17;98203.69;;;9.25;68.00
15817;BME280;8009;50.070;8.232;2022-11-22T12:32:52;98196.31;;;9.45;66.22
15817;BME280;8009;50.070;8.232;2022-11-22T12:35:25;98204.94;;;9.48;66.82
15817;BME280;8009;50.070;8.232;2022-11-22T12:38:03;98207.41;;;9.42;66.96
15817;BME280;8009;50.070;8.232;2022-11-22T12:40:41;98208.88;;;9.36;68.53
15817;BME280;8009;50.070;8.232;2022-11-22T12:43:15;98203.31;;;9.20;68.86
15817;BME280;8009;50.070;8.232;2022-11-22T12:45:48;98205.38;;;9.08;68.71
15817;BME280;8009;50.070;8.232;2022-11-22T12:48:21;98199.31;;;9.24;68.36
15817;BME280;8009;50.070;8.232;2022-11-22T12:50:53;98208.91;;;9.26;67.45
15817;BME280;8009;50.070;8.232;2022-11-22T12:53:30;98210.13;;;9.14;67.47
15817;BME280;8009;50.070;8.232;2022-11-22T12:56:05;98205.09;;;9.01;67.95
15817;BME280;8009;50.070;8.232;2022-11-22T12:58:39;98204.50;;;9.08;68.08
15817;BME280;8009;50.070;8.232;2022-11-22T13:01:14;98203.28;;;8.92;67.61
15817;BME280;8009;50.070;8.232;2022-11-22T13:03:48;98197.16;;;9.27;66.83
15817;BME280;8009;50.070;8.232;2022-11-22T13:06:21;98199.91;;;8.90;68.81
15817;BME280;8009;50.070;8.232;2022-11-22T13:08:57;98196.13;;;9.11;71.07
15817;BME280;8009;50.070;8.232;2022-11-22T13:11:31;98194.25;;;9.11;68.88
15817;BME280;8009;50.070;8.232;2022-11-22T13:14:05;98194.19;;;9.03;68.74
15817;BME280;8009;50.070;8.232;2022-11-22T13:16:35;98187.66;;;8.78;68.76
15817;BME280;8009;50.070;8.232;2022-11-22T13:19:05;98198.97;;;9.09;68.78
15817;BME280;8009;50.070;8.232;2022-11-22T13:21:42;98192.00;;;9.34;67.83
15817;BME280;8009;50.070;8.232;2022-11-22T13:27:26;98193.28;;;9.12;69.10
15817;BME280;8009;50.070;8.232;2022-11-22T13:29:59;98193.69;;;9.17;69.01
15817;BME280;8009;50.070;8.232;2022-11-22T13:32:30;98201.09;;;9.33;68.63
15817;BME280;8009;50.070;8.232;2022-11-22T13:35:04;98198.88;;;9.01;70.20
15817;BME280;8009;50.070;8.232;2022-11-22T13:37:36;98192.84;;;9.17;70.29
15817;BME280;8009;50.070;8.232;2022-11-22T13:40:22;98194.19;;;9.03;70.97
15817;BME280;8009;50.070;8.232;2022-11-22T13:43:39;98196.13;;;9.11;70.13
15817;BME280;8009;50.070;8.232;2022-11-22T13:49:27;98181.28;;;8.79;71.19
15817;BME280;8009;50.070;8.232;2022-11-22T13:51:59;98189.00;;;8.64;71.69
15817;BME280;8009;50.070;8.232;2022-11-22T13:54:39;98184.97;;;9.06;72.63
15817;BME280;8009;50.070;8.232;2022-11-22T13:57:29;98178.19;;;9.19;72.96
15817;BME280;8009;50.070;8.232;2022-11-22T14:03:25;98179.88;;;8.75;71.71
15817;BME280;8009;50.070;8.232;2022-11-22T14:06:00;98179.97;;;8.83;71.63
15817;BME280;8009;50.070;8.232;2022-11-22T14:08:41;98178.28;;;8.82;71.82
15817;BME280;8009;50.070;8.232;2022-11-22T14:11:20;98174.03;;;8.79;72.14
15817;BME280;8009;50.070;8.232;2022-11-22T14:14:01;98178.97;;;8.84;72.05
15817;BME280;8009;50.070;8.232;2022-11-22T14:16:52;98173.66;;;9.02;71.08
15817;BME280;8009;50.070;8.232;2022-11-22T14:19:32;98180.91;;;8.64;72.09
15817;BME280;8009;50.070;8.232;2022-11-22T14:22:27;98179.31;;;8.99;70.96
15817;BME280;8009;50.070;8.232;2022-11-22T14:25:08;98182.09;;;9.07;70.45
15817;BME280;8009;50.070;8.232;2022-11-22T14:27:48;98173.97;;;9.17;69.66
15817;BME280;8009;50.070;8.232;2022-11-22T14:30:22;98176.78;;;8.97;70.64
15817;BME280;8009;50.070;8.232;2022-11-22T14:33:12;98180.38;;;8.88;71.28
15817;BME280;8009;50.070;8.232;2022-11-22T14:36:12;98171.91;;;8.83;71.35
15817;BME280;8009;50.070;8.232;2022-11-22T14:38:41;98176.38;;;8.92;70.92
15817;BME280;8009;50.070;8.232;2022-11-22T14:44:21;98192.78;;;8.99;70.97
15817;BME280;8009;50.070;8.232;2022-11-22T14:47:01;98187.41;;;8.99;71.31
15817;BME280;8009;50.070;8.232;2022-11-22T14:49:37;98193.06;;;8.96;70.59
15817;BME280;8009;50.070;8.232;2022-11-22T14:52:15;98196.13;;;9.11;71.11
15817;BME280;8009;50.070;8.232;2022-11-22T14:54:53;98190.84;;;8.91;71.13
15817;BME280;8009;50.070;8.232;2022-11-22T14:57:25;98193.13;;;9.14;69.80
15817;BME280;8009;50.070;8.232;2022-11-22T15:00:06;98182.16;;;9.25;70.32
15817;BME280;8009;50.070;8.232;2022-11-22T15:03:09;98178.16;;;9.47;69.86
15817;BME280;8009;50.070;8.232;2022-11-22T15:05:54;98188.09;;;9.46;69.66
15817;BME280;8009;50.070;8.232;2022-11-22T15:08:34;98183.94;;;9.52;68.90
15817;BME280;8009;50.070;8.232;2022-11-22T15:11:26;98175.69;;;9.36;70.64
15817;BME280;8009;50.070;8.232;2022-11-22T15:17:04;98186.00;;;9.40;70.54
15817;BME280;8009;50.070;8.232;2022-11-22T15:19:38;98189.72;;;9.12;72.15
15817;BME280;8009;50.070;8.232;2022-11-22T15:22:11;98190.94;;;8.99;71.97
15817;BME280;8009;50.070;8.232;2022-11-22T15:24:47;98196.41;;;9.08;71.48
15817;BME280;8009;50.070;8.232;2022-11-22T15:27:21;98199.53;;;9.31;72.26
15817;BME280;8009;50.070;8.232;2022-11-22T15:30:11;98200.78;;;8.81;73.60
15817;BME280;8009;50.070;8.232;2022-11-22T15:32:41;98206.59;;;8.86;72.76
15817;BME280;8009;50.070;8.232;2022-11-22T15:35:16;98208.06;;;9.08;72.85
15817;BME280;8009;50.070;8.232;2022-11-22T15:37:54;98209.53;;;8.93;72.51
15817;BME280;8009;50.070;8.232;2022-11-22T15:40:23;98216.34;;;9.15;72.58
15817;BME280;8009;50.070;8.232;2022-11-22T15:42:54;98227.22;;;8.95;72.72
15817;BME280;8009;50.070;8.232;2022-11-22T15:45:24;98219.13;;;9.05;72.74
15817;BME280;8009;50.070;8.232;2022-11-22T15:47:56;98220.63;;;9.08;72.30
15817;BME280;8009;50.070;8.232;2022-11-22T15:50:28;98224.22;;;8.71;73.01
15817;BME280;8009;50.070;8.232;2022-11-22T15:53:24;98226.13;;;8.88;72.66
15817;BME280;8009;50.070;8.232;2022-11-22T15:55:55;98223.41;;;8.98;74.74
15817;BME280;8009;50.070;8.232;2022-11-22T15:58:26;98241.13;;;8.91;72.96
15817;BME280;8009;50.070;8.232;2022-11-22T16:01:01;98232.88;;;8.65;73.21
15817;BME280;8009;50.070;8.232;2022-11-22T16:03:36;98248.56;;;8.69;72.65
15817;BME280;8009;50.070;8.232;2022-11-22T16:06:15;98248.28;;;9.10;71.84
15817;BME280;8009;50.070;8.232;2022-11-22T16:08:49;98241.53;;;8.96;72.37
15817;BME280;8009;50.070;8.232;2022-11-22T16:11:19;98251.72;;;9.02;72.67
15817;BME280;8009;50.070;8.232;2022-11-22T16:13:50;98257.56;;;9.25;72.36
15817;BME280;8009;50.070;8.232;2022-11-22T16:16:20;98256.53;;;9.26;71.81
15817;BME280;8009;50.070;8.232;2022-11-22T16:18:52;98260.44;;;9.41;71.43
15817;BME280;8009;50.070;8.232;2022-11-22T16:21:29;98256.97;;;9.31;71.52
15817;BME280;8009;50.070;8.232;2022-11-22T16:24:08;98260.50;;;9.49;71.34
15817;BME280;8009;50.070;8.232;2022-11-22T16:26:38;98262.97;;;9.15;72.07
15817;BME280;8009;50.070;8.232;2022-11-22T16:29:18;98267.84;;;8.74;74.28
15817;BME280;8009;50.070;8.232;2022-11-22T16:31:50;98269.00;;;8.99;73.08
15817;BME280;8009;50.070;8.232;2022-11-22T16:34:26;98273.19;;;9.12;72.85
15817;BME280;8009;50.070;8.232;2022-11-22T16:36:58;98268.13;;;9.09;74.04
15817;BME280;8009;50.070;8.232;2022-11-22T16:39:26;98268.69;;;9.12;73.18
15817;BME280;8009;50.070;8.232;2022-11-22T16:41:55;98275.75;;;9.13;73.14
15817;BME280;8009;50.070;8.232;2022-11-22T16:44:23;98274.94;;;9.03;73.12
15817;BME280;8009;50.070;8.232;2022-11-22T16:46:52;98275.56;;;8.97;74.08
15817;BME280;8009;50.070;8.232;2022-11-22T16:49:21;98271.88;;;9.25;73.06
15817;BME280;8009;50.070;8.232;2022-11-22T16:51:52;98275.78;;;9.03;73.85
15817;BME280;8009;50.070;8.232;2022-11-22T16:54:24;98282.06;;;8.94;74.37
15817;BME280;8009;50.070;8.232;2022-11-22T16:56:55;98282.38;;;9.19;73.74
15817;BME280;8009;50.070;8.232;2022-11-22T16:59:23;98283.13;;;9.11;74.01
15817;BME280;8009;50.070;8.232;2022-11-22T17:01:52;98292.28;;;8.81;74.93
15817;BME280;8009;50.070;8.232;2022-11-22T17:04:22;98291.31;;;8.82;74.90
15817;BME280;8009;50.070;8.232;2022-11-22T17:06:52;98296.84;;;8.81;75.04
15817;BME280;8009;50.070;8.232;2022-11-22T17:09:20;98293.16;;;8.82;75.10
15817;BME280;8009;50.070;8.232;2022-11-22T17:11:52;98298.78;;;8.88;75.03
15817;BME280;8009;50.070;8.232;2022-11-22T17:14:21;98301.25;;;8.82;75.68
15817;BME280;8009;50.070;8.232;2022-11-22T17:16:50;98302.56;;;8.58;75.98
15817;BME280;8009;50.070;8.232;2022-11-22T17:19:19;98298.41;;;8.83;75.74
15817;BME280;8009;50.070;8.232;2022-11-22T17:21:47;98307.75;;;8.79;75.55
15817;BME280;8009;50.070;8.232;2022-11-22T17:24:17;98313.41;;;8.86;75.60
15817;BME280;8009;50.070;8.232;2022-11-22T17:26:47;98315.66;;;8.90;75.14
15817;BME280;8009;50.070;8.232;2022-11-22T17:29:18;98314.94;;;8.88;75.14
15817;BME280;8009;50.070;8.232;2022-11-22T17:31:46;98311.28;;;8.89;75.41
15817;BME280;8009;50.070;8.232;2022-11-22T17:34:15;98320.88;;;8.92;75.34
15817;BME280;8009;50.070;8.232;2022-11-22T17:36:45;98322.78;;;8.72;76.24
15817;BME280;8009;50.070;8.232;2022-11-22T17:39:15;98314.59;;;9.11;74.85
15817;BME280;8009;50.070;8.232;2022-11-22T17:41:47;98317.72;;;9.16;74.62
15817;BME280;8009;50.070;8.232;2022-11-22T17:44:18;98315.31;;;9.13;74.95
15817;BME280;8009;50.070;8.232;2022-11-22T17:46:47;98314.31;;;9.04;75.35
15817;BME280;8009;50.070;8.232;2022-11-22T17:49:15;98309.34;;;9.09;75.16
15817;BME280;8009;50.070;8.232;2022-11-22T17:51:45;98314.66;;;8.91;75.29
15817;BME280;8009;50.070;8.232;2022-11-22T17:54:13;98323.19;;;8.87;76.03
15817;BME280;8009;50.070;8.232;2022-11-22T17:56:42;98325.53;;;8.14;78.82